Time;durP1;ratioP1;P1;durP2;ratioP2;P2;SDS_P1;SDS_P2;PMS_P1;PMS_P2;Temp;Humidity;BMP_temperature;BMP_pressure;BME280_temperature;BME280_humidity;BME280_pressure;Samples;Min_cycle;Max_cycle;Signal;HPM_P1;HPM_P2
2022/07/02 00:03:10;;;;;;;7.93;6.05;;;;;;;-141.48;100.00;69781.59;4961678;29;20130;-90
2022/07/02 00:06:51;;;;;;;7.05;4.07;;;;;;;-141.48;100.00;69781.59;4937961;30;20045;-89
2022/07/02 00:10:21;;;;;;;10.68;5.55;;;;;;;-141.48;100.00;69781.59;4955145;30;20027;-90
2022/07/02 00:13:50;;;;;;;4.68;4.43;;;;;;;-141.48;100.00;69781.59;4940428;30;20038;-90
2022/07/02 00:17:19;;;;;;;10.23;5.37;;;;;;;-141.48;100.00;69781.59;4954898;30;20499;-91
2022/07/02 00:20:49;;;;;;;7.00;5.10;;;;;;;-141.48;100.00;69781.59;4938858;30;20055;-90
2022/07/02 00:24:17;;;;;;;4.70;4.40;;;;;;;-141.48;100.00;69781.59;4954172;29;20096;-91
2022/07/02 00:27:54;;;;;;;4.97;4.55;;;;;;;-141.48;100.00;69781.59;4954388;30;20521;-90
2022/07/02 00:31:23;;;;;;;5.22;4.85;;;;;;;-141.48;100.00;69781.59;4938814;30;20031;-90
2022/07/02 00:34:54;;;;;;;3.90;3.70;;;;;;;-141.48;100.00;69781.59;4953217;30;20448;-90
2022/07/02 00:38:27;;;;;;;4.45;4.20;;;;;;;-141.48;100.00;69781.59;4940389;30;20036;-89
2022/07/02 00:41:58;;;;;;;5.57;5.18;;;;;;;-141.48;100.00;69781.59;4938348;30;20024;-90
2022/07/02 00:45:28;;;;;;;3.92;3.70;;;;;;;-141.48;100.00;69781.59;4961746;29;20051;-82
2022/07/02 00:48:59;;;;;;;4.50;4.22;;;;;;;-141.48;100.00;69781.59;4963370;29;20045;-82
2022/07/02 00:52:28;;;;;;;6.93;5.45;;;;;;;-141.48;100.00;69781.59;4964551;30;20342;-82
2022/07/02 00:55:57;;;;;;;7.82;5.32;;;;;;;-141.48;100.00;69781.59;4967246;30;20110;-81
2022/07/02 00:59:30;;;;;;;4.38;4.18;;;;;;;-141.48;100.00;69781.59;4968161;29;20042;-82
2022/07/02 01:02:59;;;;;;;4.72;4.43;;;;;;;-141.48;100.00;69781.59;4964040;30;20070;-78
2022/07/02 01:06:30;;;;;;;5.18;4.88;;;;;;;-141.48;100.00;69781.59;4963851;30;20509;-82
2022/07/02 01:10:19;;;;;;;5.70;5.35;;;;;;;-141.48;100.00;69781.59;4964436;29;20051;-81
2022/07/02 01:13:50;;;;;;;4.22;4.03;;;;;;;-141.48;100.00;69781.59;4963768;30;20106;-82
2022/07/02 01:17:19;;;;;;;6.32;4.22;;;;;;;-141.48;100.00;69781.59;4947310;30;20107;-82
2022/07/02 01:20:48;;;;;;;5.65;5.25;;;;;;;-141.48;100.00;69781.59;4963294;29;20031;-81
2022/07/02 01:24:23;;;;;;;4.97;4.60;;;;;;;-141.48;100.00;69781.59;4947037;30;20541;-82
2022/07/02 01:27:52;;;;;;;3.92;3.63;;;;;;;-141.48;100.00;69781.59;4962903;30;20482;-79
2022/07/02 01:31:23;;;;;;;5.80;5.40;;;;;;;-141.48;100.00;69781.59;4963051;30;20491;-82
2022/07/02 01:35:01;;;;;;;4.93;4.53;;;;;;;-141.48;100.00;69781.59;4962875;30;20030;-81
2022/07/02 01:38:30;;;;;;;6.93;6.38;;;;;;;-141.48;100.00;69781.59;4963269;30;20330;-82
2022/07/02 01:41:59;;;;;;;5.60;4.40;;;;;;;-141.48;100.00;69781.59;4947312;30;20039;-78
2022/07/02 01:45:28;;;;;;;4.90;4.60;;;;;;;-141.48;100.00;69781.59;4961977;30;20405;-81
2022/07/02 01:48:57;;;;;;;5.68;5.22;;;;;;;-141.48;100.00;69781.59;4964038;29;20705;-80
2022/07/02 01:52:26;;;;;;;4.18;3.90;;;;;;;-141.48;100.00;69781.59;4968752;30;20486;-79
2022/07/02 01:55:55;;;;;;;4.25;4.05;;;;;;;-141.48;100.00;69781.59;4957454;30;20027;-77
2022/07/02 01:59:24;;;;;;;4.18;3.97;;;;;;;-141.48;100.00;69781.59;4972271;29;20027;-81
2022/07/02 02:02:53;;;;;;;5.88;4.00;;;;;;;-141.48;100.00;69781.59;4962916;30;20062;-82
2022/07/02 02:06:22;;;;;;;3.93;3.77;;;;;;;-141.48;100.00;69781.59;4962527;30;20035;-82
2022/07/02 02:09:51;;;;;;;5.93;5.40;;;;;;;-141.48;100.00;69781.59;4963367;29;20422;-81
2022/07/02 02:13:20;;;;;;;4.38;4.18;;;;;;;-141.48;100.00;69781.59;4963460;30;20030;-78
2022/07/02 02:16:49;;;;;;;5.77;5.33;;;;;;;-141.48;100.00;69781.59;4972212;30;20063;-79
2022/07/02 02:20:18;;;;;;;5.63;5.07;;;;;;;-141.48;100.00;69781.59;4956925;30;20035;-82
2022/07/02 02:23:47;;;;;;;6.45;4.93;;;;;;;-141.48;100.00;69781.59;4958367;30;20479;-77
2022/07/02 02:27:16;;;;;;;4.47;4.30;;;;;;;-141.48;100.00;69781.59;4973273;30;20031;-78
2022/07/02 02:30:45;;;;;;;5.97;5.40;;;;;;;-141.48;100.00;69781.59;4968209;29;20058;-82
2022/07/02 02:34:14;;;;;;;4.85;4.15;;;;;;;-141.48;100.00;69781.59;4971320;30;20031;-80
2022/07/02 02:37:43;;;;;;;4.35;4.15;;;;;;;-141.48;100.00;69781.59;4961425;30;20027;-82
2022/07/02 02:41:12;;;;;;;5.25;4.95;;;;;;;-141.48;100.00;69781.59;4962159;30;20035;-79
2022/07/02 02:44:41;;;;;;;5.60;4.47;;;;;;;-141.48;100.00;69781.59;4960581;30;20493;-81
2022/07/02 02:48:10;;;;;;;7.03;6.32;;;;;;;-141.48;100.00;69781.59;4945740;30;20035;-79
2022/07/02 02:51:39;;;;;;;5.30;5.00;;;;;;;-141.48;100.00;69781.59;4961260;30;20046;-82
2022/07/02 02:55:08;;;;;;;6.40;6.00;;;;;;;-141.48;100.00;69781.59;4962114;29;20136;-82
2022/07/02 02:58:37;;;;;;;6.60;6.17;;;;;;;-141.48;100.00;69781.59;4974427;29;20035;-82
2022/07/02 03:02:07;;;;;;;5.20;5.00;;;;;;;-141.48;100.00;69781.59;4976200;29;20339;-82
2022/07/02 03:05:36;;;;;;;6.13;5.70;;;;;;;-141.48;100.00;69781.59;4972043;29;20076;-82
2022/07/02 03:09:05;;;;;;;5.95;5.57;;;;;;;-141.48;100.00;69781.59;4969720;29;20037;-83
2022/07/02 03:12:34;;;;;;;5.35;5.05;;;;;;;-141.48;100.00;69781.59;4963647;29;20069;-81
2022/07/02 03:16:03;;;;;;;5.47;5.18;;;;;;;-141.48;100.00;69781.59;4963899;29;20031;-82
2022/07/02 03:19:33;;;;;;;9.27;5.00;;;;;;;-141.48;100.00;69781.59;4968311;29;20037;-81
2022/07/02 03:23:02;;;;;;;5.85;5.20;;;;;;;-141.48;100.00;69781.59;4955410;29;20467;-81
2022/07/02 03:26:31;;;;;;;4.33;4.07;;;;;;;-141.48;100.00;69781.59;4959284;30;20409;-82
2022/07/02 03:30:00;;;;;;;5.30;4.85;;;;;;;-141.48;100.00;69781.59;4975750;29;20643;-81
2022/07/02 03:33:29;;;;;;;7.93;4.38;;;;;;;-141.48;100.00;69781.59;4961161;30;20035;-80
2022/07/02 03:36:58;;;;;;;9.68;5.47;;;;;;;-141.48;100.00;69781.59;4967425;29;20028;-83
2022/07/02 03:40:27;;;;;;;5.88;4.38;;;;;;;-141.48;100.00;69781.59;4948949;29;20031;-81
2022/07/02 03:43:56;;;;;;;4.68;4.47;;;;;;;-141.48;100.00;69781.59;4959981;29;20244;-81
2022/07/02 03:47:25;;;;;;;7.45;6.35;;;;;;;-141.48;100.00;69781.59;4979969;29;20035;-82
2022/07/02 03:50:54;;;;;;;5.15;4.72;;;;;;;-141.48;100.00;69781.59;4967229;29;20034;-78
2022/07/02 03:54:23;;;;;;;4.95;4.65;;;;;;;-141.48;100.00;69781.59;4964399;29;20076;-82
2022/07/02 03:57:52;;;;;;;4.80;4.57;;;;;;;-141.48;100.00;69781.59;4960025;29;20039;-82
2022/07/02 04:01:21;;;;;;;5.18;4.25;;;;;;;-141.48;100.00;69781.59;4968751;29;20027;-80
2022/07/02 04:04:50;;;;;;;5.25;4.95;;;;;;;-141.48;100.00;69781.59;4978757;29;20105;-81
2022/07/02 04:08:19;;;;;;;5.00;4.65;;;;;;;-141.48;100.00;69781.59;4945708;30;20402;-79
2022/07/02 04:11:48;;;;;;;7.18;5.30;;;;;;;-141.48;100.00;69781.59;4973941;29;20501;-81
2022/07/02 04:15:17;;;;;;;3.83;3.72;;;;;;;-141.48;100.00;69781.59;4969115;29;20183;-78
2022/07/02 04:18:46;;;;;;;4.25;3.95;;;;;;;-141.48;100.00;69781.59;4948267;29;20065;-80
2022/07/02 04:22:15;;;;;;;4.63;4.32;;;;;;;-141.48;100.00;69781.59;4963099;29;20042;-81
2022/07/02 04:25:44;;;;;;;4.82;4.43;;;;;;;-141.48;100.00;69781.59;4961149;29;20036;-81
2022/07/02 04:29:13;;;;;;;4.90;4.70;;;;;;;-141.48;100.00;69781.59;4963161;29;20487;-77
2022/07/02 04:32:42;;;;;;;6.53;5.97;;;;;;;-141.48;100.00;69781.59;4966302;29;20039;-78
2022/07/02 04:36:11;;;;;;;4.50;4.10;;;;;;;-141.48;100.00;69781.59;4967313;29;20478;-78
2022/07/02 04:39:40;;;;;;;5.30;4.93;;;;;;;-141.48;100.00;69781.59;4964463;29;20733;-79
2022/07/02 04:43:09;;;;;;;4.25;3.95;;;;;;;-141.48;100.00;69781.59;4962068;29;20284;-79
2022/07/02 04:46:38;;;;;;;4.35;4.15;;;;;;;-141.48;100.00;69781.59;4958925;29;20034;-78
2022/07/02 04:50:07;;;;;;;3.90;3.70;;;;;;;-141.48;100.00;69781.59;4964873;29;20035;-79
2022/07/02 04:53:36;;;;;;;9.68;3.90;;;;;;;-141.48;100.00;69781.59;4965997;29;20027;-79
2022/07/02 04:57:05;;;;;;;4.22;4.03;;;;;;;-141.48;100.00;69781.59;4971275;29;20372;-78
2022/07/02 05:00:34;;;;;;;2.85;2.75;;;;;;;-141.48;100.00;69781.59;4963961;29;20103;-79
2022/07/02 05:04:03;;;;;;;4.30;4.10;;;;;;;-141.48;100.00;69781.59;4956970;30;20110;-79
2022/07/02 05:07:32;;;;;;;4.07;3.88;;;;;;;-141.48;100.00;69781.59;4957428;30;20178;-79
2022/07/02 05:11:01;;;;;;;4.05;3.65;;;;;;;-141.48;100.00;69781.59;4956331;30;20034;-79
2022/07/02 05:14:30;;;;;;;4.00;3.70;;;;;;;-141.48;100.00;69781.59;4959878;30;20110;-80
2022/07/02 05:18:00;;;;;;;4.25;3.63;;;;;;;-141.48;100.00;69781.59;4976771;29;20090;-80
2022/07/02 05:21:28;;;;;;;4.13;3.92;;;;;;;-141.48;100.00;69781.59;4976606;29;20031;-79
2022/07/02 05:24:57;;;;;;;3.77;3.67;;;;;;;-141.48;100.00;69781.59;4961956;29;20069;-80
2022/07/02 05:28:26;;;;;;;4.87;3.80;;;;;;;-141.48;100.00;69781.59;4978351;29;20466;-80
2022/07/02 05:31:55;;;;;;;3.33;3.20;;;;;;;-141.48;100.00;69781.59;4953248;30;20019;-81
2022/07/02 05:35:24;;;;;;;4.27;3.90;;;;;;;-141.48;100.00;69781.59;4960974;29;20130;-80
2022/07/02 05:38:53;;;;;;;3.88;3.67;;;;;;;-141.48;100.00;69781.59;4961996;30;20053;-80
2022/07/02 05:42:22;;;;;;;2.53;2.40;;;;;;;-141.48;100.00;69781.59;4961498;29;20027;-79
2022/07/02 05:45:51;;;;;;;4.00;3.70;;;;;;;-141.48;100.00;69781.59;4963505;30;20594;-80
2022/07/02 05:49:20;;;;;;;4.40;4.20;;;;;;;-141.48;100.00;69781.59;4980469;29;20478;-81
2022/07/02 05:52:49;;;;;;;4.10;3.90;;;;;;;-141.48;100.00;69781.59;4983251;29;20038;-80
2022/07/02 05:56:18;;;;;;;4.30;4.05;;;;;;;-141.48;100.00;69781.59;4980918;29;20027;-80
2022/07/02 05:59:47;;;;;;;4.22;3.58;;;;;;;-141.48;100.00;69781.59;4958943;29;20035;-81
2022/07/02 06:03:16;;;;;;;3.00;2.90;;;;;;;-141.48;100.00;69781.59;4979737;29;20050;-80
2022/07/02 06:10:32;;;;;;;4.63;4.22;;;;;;;-141.48;100.00;69781.59;4981413;29;20125;-81
2022/07/02 06:14:01;;;;;;;5.80;3.13;;;;;;;-141.48;100.00;69781.59;4983901;29;20046;-80
2022/07/02 06:17:30;;;;;;;4.97;3.83;;;;;;;-141.48;100.00;69781.59;4983036;29;20046;-81
2022/07/02 06:20:59;;;;;;;2.93;2.83;;;;;;;-141.48;100.00;69781.59;4980647;29;20026;-81
2022/07/02 06:24:28;;;;;;;4.00;3.38;;;;;;;-141.48;100.00;69781.59;4978247;29;20038;-81
2022/07/02 06:27:57;;;;;;;3.20;3.00;;;;;;;-141.48;100.00;69781.59;4978486;29;20030;-80
2022/07/02 06:31:26;;;;;;;5.80;4.30;;;;;;;-141.48;100.00;69781.59;4978409;29;20035;-80
2022/07/02 06:34:55;;;;;;;4.38;3.60;;;;;;;-141.48;100.00;69781.59;4977076;29;20034;-79
2022/07/02 06:38:24;;;;;;;3.03;2.80;;;;;;;-141.48;100.00;69781.59;4976505;29;20086;-79
2022/07/02 06:45:22;;;;;;;7.53;2.63;;;;;;;-141.48;100.00;69781.59;4989611;23;20444;-61
2022/07/02 06:48:51;;;;;;;2.30;1.83;;;;;;;-141.48;100.00;69781.59;4969208;29;20043;-65
2022/07/02 06:52:20;;;;;;;2.75;2.55;;;;;;;-141.48;100.00;69781.59;4970613;29;20023;-61
2022/07/02 06:55:49;;;;;;;2.15;2.00;;;;;;;-141.48;100.00;69781.59;4967186;29;20035;-62
2022/07/02 06:59:18;;;;;;;1.40;1.30;;;;;;;-141.48;100.00;69781.59;4970766;29;20049;-63
2022/07/02 07:02:47;;;;;;;1.83;1.70;;;;;;;-141.48;100.00;69781.59;4970099;29;20026;-65
2022/07/02 07:06:18;;;;;;;1.90;1.80;;;;;;;-141.48;100.00;69781.59;4953569;29;20084;-61
2022/07/02 07:09:46;;;;;;;2.03;2.00;;;;;;;-141.48;100.00;69781.59;4951664;30;20027;-61
2022/07/02 07:13:15;;;;;;;2.78;1.80;;;;;;;-141.48;100.00;69781.59;4950886;30;20035;-63
2022/07/02 07:16:44;;;;;;;1.95;1.95;;;;;;;-141.48;100.00;69781.59;4949268;30;20039;-63
2022/07/02 07:20:16;;;;;;;2.60;1.80;;;;;;;-141.48;100.00;69781.59;4950866;30;20032;-62
2022/07/02 07:23:45;;;;;;;2.30;2.20;;;;;;;-141.48;100.00;69781.59;4951159;30;20408;-63
2022/07/02 07:27:14;;;;;;;2.35;2.25;;;;;;;-141.48;100.00;69781.59;4950644;29;20569;-63
2022/07/02 07:30:43;;;;;;;1.60;1.60;;;;;;;-141.48;100.00;69781.59;4934687;30;20031;-64
2022/07/02 07:34:12;;;;;;;;;;;;;;;-141.48;100.00;69781.59;4950536;29;20027;-63
2022/07/02 07:37:41;;;;;;;2.10;2.03;;;;;;;-141.48;100.00;69781.59;4934509;30;19955;-63
2022/07/02 07:41:10;;;;;;;1.92;1.88;;;;;;;-141.48;100.00;69781.59;4950898;30;20035;-64
2022/07/02 07:44:39;;;;;;;1.80;1.77;;;;;;;-141.48;100.00;69781.59;4950314;30;20516;-63
2022/07/02 07:48:08;;;;;;;1.70;1.60;;;;;;;-141.48;100.00;69781.59;4950759;29;20102;-64
2022/07/02 07:51:37;;;;;;;2.35;2.10;;;;;;;-141.48;100.00;69781.59;4950776;29;20030;-64
2022/07/02 07:55:06;;;;;;;4.68;2.42;;;;;;;-141.48;100.00;69781.59;4950492;30;20035;-63
2022/07/02 07:58:36;;;;;;;2.17;2.03;;;;;;;-141.48;100.00;69781.59;4950070;29;20029;-63
2022/07/02 08:02:05;;;;;;;;;;;;;;;-141.48;100.00;69781.59;4950902;29;20031;-64
2022/07/02 08:05:34;;;;;;;2.03;2.03;;;;;;;-141.48;100.00;69781.59;4950498;30;19918;-65
2022/07/02 08:09:03;;;;;;;2.22;1.83;;;;;;;-141.48;100.00;69781.59;4949346;30;20084;-64
2022/07/02 08:12:32;;;;;;;1.95;1.85;;;;;;;-141.48;100.00;69781.59;4950558;30;20058;-64
2022/07/02 08:16:02;;;;;;;2.55;2.22;;;;;;;-141.48;100.00;69781.59;4950169;29;20070;-64
2022/07/02 08:19:31;;;;;;;1.88;1.88;;;;;;;-141.48;100.00;69781.59;4950624;30;20500;-64
2022/07/02 08:23:01;;;;;;;1.95;1.83;;;;;;;-141.48;100.00;69781.59;4949300;30;20028;-64
2022/07/02 08:26:30;;;;;;;5.72;1.75;;;;;;;-141.48;100.00;69781.59;4950407;30;20062;-64
2022/07/02 08:29:59;;;;;;;2.03;1.92;;;;;;;-141.48;100.00;69781.59;4949251;30;20642;-63
2022/07/02 08:33:28;;;;;;;1.98;1.88;;;;;;;-141.48;100.00;69781.59;4950420;30;20054;-63
2022/07/02 08:36:57;;;;;;;2.80;1.58;;;;;;;-141.48;100.00;69781.59;4948499;30;20023;-63
2022/07/02 08:40:28;;;;;;;2.42;2.33;;;;;;;-141.48;100.00;69781.59;4950004;30;20046;-62
2022/07/02 08:43:59;;;;;;;1.70;1.70;;;;;;;-141.48;100.00;69781.59;4950094;29;20129;-64
2022/07/02 08:47:29;;;;;;;2.10;2.03;;;;;;;-141.48;100.00;69781.59;4950277;30;20037;-64
2022/07/02 08:50:59;;;;;;;1.75;1.75;;;;;;;-141.48;100.00;69781.59;4934200;30;20031;-63
2022/07/02 08:54:28;;;;;;;2.22;2.13;;;;;;;-141.48;100.00;69781.59;4948167;30;20042;-63
2022/07/02 08:57:59;;;;;;;2.03;1.77;;;;;;;-141.48;100.00;69781.59;4949086;30;20492;-63
2022/07/02 09:01:28;;;;;;;12.45;2.38;;;;;;;-141.48;100.00;69781.59;4950281;30;20100;-64
2022/07/02 09:05:01;;;;;;;1.20;1.20;;;;;;;-141.48;100.00;69781.59;4950956;29;20117;-64
2022/07/02 09:08:33;;;;;;;2.83;2.65;;;;;;;-141.48;100.00;69781.59;4953169;30;20035;-62
2022/07/02 09:12:03;;;;;;;2.38;2.22;;;;;;;-141.48;100.00;69781.59;4953052;30;20027;-64
2022/07/02 09:15:34;;;;;;;2.67;2.58;;;;;;;-141.48;100.00;69781.59;4952610;30;20031;-64
2022/07/02 09:19:03;;;;;;;3.65;2.13;;;;;;;-141.48;100.00;69781.59;4952871;29;20031;-64
2022/07/02 09:22:43;;;;;;;3.67;2.17;;;;;;;-141.48;100.00;69781.59;4952103;30;20058;-64
2022/07/02 09:26:23;;;;;;;4.97;2.05;;;;;;;-141.48;100.00;69781.59;4952273;29;20497;-63
2022/07/02 09:29:53;;;;;;;1.83;1.80;;;;;;;-141.48;100.00;69781.59;4952293;29;20485;-64
2022/07/02 09:33:29;;;;;;;2.38;1.55;;;;;;;-141.48;100.00;69781.59;4952581;30;20027;-64
2022/07/02 09:36:59;;;;;;;2.20;2.00;;;;;;;-141.48;100.00;69781.59;4951091;30;20028;-63
2022/07/02 09:40:28;;;;;;;1.88;1.85;;;;;;;-141.48;100.00;69781.59;4952519;29;20062;-63
2022/07/02 09:43:59;;;;;;;3.13;1.70;;;;;;;-141.48;100.00;69781.59;4951706;30;20408;-62
2022/07/02 09:47:29;;;;;;;1.77;1.67;;;;;;;-141.48;100.00;69781.59;4951670;30;20035;-63
2022/07/02 09:51:05;;;;;;;1.67;1.48;;;;;;;-141.48;100.00;69781.59;4950946;29;20027;-64
2022/07/02 09:54:46;;;;;;;1.90;1.80;;;;;;;-141.48;100.00;69781.59;4950639;30;20144;-62
2022/07/02 09:58:22;;;;;;;2.92;2.70;;;;;;;-141.48;100.00;69781.59;4952206;30;20027;-63
2022/07/02 10:01:52;;;;;;;15.45;2.95;;;;;;;-141.48;100.00;69781.59;4953051;30;20114;-63
2022/07/02 10:05:33;;;;;;;1.98;1.88;;;;;;;-141.48;100.00;69781.59;4951241;30;20054;-62
2022/07/02 10:09:03;;;;;;;1.60;1.60;;;;;;;-141.48;100.00;69781.59;4950543;30;20038;-62
2022/07/02 10:12:33;;;;;;;1.70;1.60;;;;;;;-141.48;100.00;69781.59;4951651;30;20106;-63
2022/07/02 10:16:03;;;;;;;1.45;1.40;;;;;;;-141.48;100.00;69781.59;4949727;29;20031;-63
2022/07/02 10:19:32;;;;;;;2.15;2.05;;;;;;;-141.48;100.00;69781.59;4952388;30;20027;-63
2022/07/02 10:23:04;;;;;;;1.50;1.48;;;;;;;-141.48;100.00;69781.59;4951480;30;20112;-63
2022/07/02 10:26:33;;;;;;;1.70;1.60;;;;;;;-141.48;100.00;69781.59;4949846;30;20063;-63
2022/07/02 10:30:02;;;;;;;3.50;1.55;;;;;;;-141.48;100.00;69781.59;4951361;30;20031;-62
2022/07/02 10:33:55;;;;;;;1.70;1.60;;;;;;;-141.48;100.00;69781.59;4951354;30;20507;-63
2022/07/02 10:37:25;;;;;;;2.63;1.70;;;;;;;-141.48;100.00;69781.59;4951110;30;20036;-63
2022/07/02 10:41:04;;;;;;;1.38;1.38;;;;;;;-141.48;100.00;69781.59;4950989;30;20031;-64
2022/07/02 10:44:38;;;;;;;1.77;1.67;;;;;;;-141.48;100.00;69781.59;4935655;30;20027;-63
2022/07/02 10:48:24;;;;;;;1.45;1.45;;;;;;;-141.48;100.00;69781.59;4950414;30;20128;-64
2022/07/02 10:51:57;;;;;;;1.45;1.35;;;;;;;-141.48;100.00;69781.59;4950764;30;20027;-64
2022/07/02 10:55:30;;;;;;;17.75;2.00;;;;;;;-141.48;100.00;69781.59;4950482;30;20039;-64
2022/07/02 10:59:04;;;;;;;3.60;2.35;;;;;;;-141.48;100.00;69781.59;4950322;30;20027;-64
2022/07/02 11:02:33;;;;;;;1.58;1.58;;;;;;;-141.48;100.00;69781.59;4950559;30;20042;-64
2022/07/02 11:06:14;;;;;;;1.85;1.35;;;;;;;-141.48;100.00;69781.59;4950208;30;20039;-64
2022/07/02 11:09:55;;;;;;;1.75;1.65;;;;;;;-141.48;100.00;69781.59;4950713;30;20397;-64
2022/07/02 11:13:45;;;;;;;1.75;1.65;;;;;;;-141.48;100.00;69781.59;4950244;30;20508;-64
2022/07/02 11:17:36;;;;;;;1.45;1.45;;;;;;;-141.48;100.00;69781.59;4950479;30;20031;-64
2022/07/02 11:21:06;;;;;;;1.13;1.13;;;;;;;-141.48;100.00;69781.59;4948814;30;20067;-64
2022/07/02 11:24:36;;;;;;;5.82;1.55;;;;;;;-141.48;100.00;69781.59;4949682;30;20034;-64
2022/07/02 11:28:05;;;;;;;1.70;1.48;;;;;;;-141.48;100.00;69781.59;4949720;29;20032;-65
2022/07/02 11:31:35;;;;;;;1.63;1.63;;;;;;;-141.48;100.00;69781.59;4950069;30;20104;-64
2022/07/02 11:35:05;;;;;;;6.28;1.67;;;;;;;-141.48;100.00;69781.59;4949401;30;20407;-65
2022/07/02 11:38:38;;;;;;;1.23;1.23;;;;;;;-141.48;100.00;69781.59;4949993;30;20046;-64
2022/07/02 11:42:33;;;;;;;6.43;1.83;;;;;;;-141.48;100.00;69781.59;4950208;29;20053;-64
2022/07/02 11:46:02;;;;;;;1.60;1.50;;;;;;;-141.48;100.00;69781.59;4950004;30;20504;-64
2022/07/02 11:49:33;;;;;;;2.78;2.33;;;;;;;-141.48;100.00;69781.59;4950290;30;20112;-64
2022/07/02 11:53:06;;;;;;;2.95;1.35;;;;;;;-141.48;100.00;69781.59;4949910;30;20031;-65
2022/07/02 11:56:38;;;;;;;1.67;1.55;;;;;;;-141.48;100.00;69781.59;4949855;30;20023;-65
2022/07/02 12:00:08;;;;;;;3.67;1.38;;;;;;;-141.48;100.00;69781.59;4950332;30;20035;-65
2022/07/02 12:03:43;;;;;;;2.35;2.00;;;;;;;-141.48;100.00;69781.59;4948771;30;20390;-64
2022/07/02 12:07:12;;;;;;;2.15;1.05;;;;;;;-141.48;100.00;69781.59;4950173;30;20031;-65
2022/07/02 12:10:42;;;;;;;1.27;1.17;;;;;;;-141.48;100.00;69781.59;4950109;30;20445;-65
2022/07/02 12:14:11;;;;;;;2.38;1.45;;;;;;;-141.48;100.00;69781.59;4948305;30;20031;-65
2022/07/02 12:17:48;;;;;;;2.20;1.35;;;;;;;-141.48;100.00;69781.59;4949424;29;20055;-65
2022/07/02 12:21:18;;;;;;;1.75;1.65;;;;;;;-141.48;100.00;69781.59;4947885;29;20019;-65
2022/07/02 12:24:51;;;;;;;4.55;1.83;;;;;;;-141.48;100.00;69781.59;4914710;30;20542;-65
2022/07/02 12:32:11;;;;;;;1.70;1.60;;;;;;;-141.48;100.00;69781.59;4950073;30;20058;-65
2022/07/02 12:35:44;;;;;;;1.10;1.10;;;;;;;-141.48;100.00;69781.59;4949526;30;20524;-65
2022/07/02 12:39:14;;;;;;;1.38;1.38;;;;;;;-141.48;100.00;69781.59;4948935;30;20039;-65
2022/07/02 12:42:47;;;;;;;1.25;1.20;;;;;;;-141.48;100.00;69781.59;4934165;30;20031;-65
2022/07/02 12:46:19;;;;;;;1.50;1.50;;;;;;;-141.48;100.00;69781.59;4956171;29;20050;-79
2022/07/02 12:49:54;;;;;;;1.40;1.30;;;;;;;-141.48;100.00;69781.59;4961114;29;20031;-79
2022/07/02 12:53:23;;;;;;;1.77;1.75;;;;;;;-141.48;100.00;69781.59;4979265;29;20034;-81
2022/07/02 12:56:53;;;;;;;2.38;2.17;;;;;;;-141.48;100.00;69781.59;4978976;29;20056;-83
2022/07/02 13:00:23;;;;;;;0.95;0.95;;;;;;;-141.48;100.00;69781.59;4979714;29;20114;-83
2022/07/02 13:03:59;;;;;;;1.98;1.67;;;;;;;-141.48;100.00;69781.59;4964202;29;20060;-80
2022/07/02 13:07:28;;;;;;;1.10;1.10;;;;;;;-141.48;100.00;69781.59;4980323;29;20038;-84
2022/07/02 13:10:57;;;;;;;1.75;1.65;;;;;;;-141.48;100.00;69781.59;4979167;29;20447;-80
2022/07/02 13:14:26;;;;;;;1.75;1.40;;;;;;;-141.48;100.00;69781.59;4977507;29;20045;-81
2022/07/02 13:17:56;;;;;;;1.50;1.40;;;;;;;-141.48;100.00;69781.59;4977661;29;20041;-83
2022/07/02 13:21:25;;;;;;;1.75;1.67;;;;;;;-141.48;100.00;69781.59;4977558;29;20156;-82
2022/07/02 13:24:57;;;;;;;1.63;1.52;;;;;;;-141.48;100.00;69781.59;4976733;29;20031;-80
2022/07/02 13:28:26;;;;;;;2.15;1.58;;;;;;;-141.48;100.00;69781.59;4960630;29;20150;-81
2022/07/02 13:31:59;;;;;;;1.95;1.85;;;;;;;-141.48;100.00;69781.59;4977088;29;20031;-82
2022/07/02 13:35:29;;;;;;;1.35;1.23;;;;;;;-141.48;100.00;69781.59;4975080;29;20039;-83
2022/07/02 13:38:58;;;;;;;1.52;1.52;;;;;;;-141.48;100.00;69781.59;4976188;29;20036;-80
2022/07/02 13:42:27;;;;;;;1.13;1.13;;;;;;;-141.48;100.00;69781.59;4976153;29;20508;-79
2022/07/02 13:45:56;;;;;;;1.00;1.00;;;;;;;-141.48;100.00;69781.59;4976141;29;20042;-79
2022/07/02 13:49:25;;;;;;;1.88;1.77;;;;;;;-141.48;100.00;69781.59;4976284;29;20042;-83
2022/07/02 13:52:54;;;;;;;1.80;1.40;;;;;;;-141.48;100.00;69781.59;4979708;29;20041;-82
2022/07/02 13:56:23;;;;;;;7.15;2.47;;;;;;;-141.48;100.00;69781.59;4981139;29;20027;-82
2022/07/02 13:59:52;;;;;;;2.05;0.90;;;;;;;-141.48;100.00;69781.59;4982084;29;20034;-80
2022/07/02 14:03:21;;;;;;;1.58;1.48;;;;;;;-141.48;100.00;69781.59;4979822;29;20027;-82
2022/07/02 14:06:50;;;;;;;1.10;1.10;;;;;;;-141.48;100.00;69781.59;4981125;29;20056;-82
2022/07/02 14:10:19;;;;;;;1.77;1.67;;;;;;;-141.48;100.00;69781.59;4980489;29;20095;-83
2022/07/02 14:13:48;;;;;;;1.80;1.80;;;;;;;-141.48;100.00;69781.59;4982382;29;20046;-83
2022/07/02 14:17:17;;;;;;;1.25;1.25;;;;;;;-141.48;100.00;69781.59;4978532;29;20514;-82
2022/07/02 14:20:46;;;;;;;1.00;1.00;;;;;;;-141.48;100.00;69781.59;4979223;29;20046;-83
2022/07/02 14:24:15;;;;;;;1.92;1.77;;;;;;;-141.48;100.00;69781.59;4980624;29;20115;-83
2022/07/02 14:27:44;;;;;;;1.10;1.10;;;;;;;-141.48;100.00;69781.59;4978844;29;20209;-80
2022/07/02 14:31:13;;;;;;;1.30;0.90;;;;;;;-141.48;100.00;69781.59;4978875;29;20035;-83
2022/07/02 14:34:42;;;;;;;1.30;1.30;;;;;;;-141.48;100.00;69781.59;4980293;29;20027;-81
2022/07/02 14:38:12;;;;;;;1.15;1.15;;;;;;;-141.48;100.00;69781.59;4979866;29;20568;-84
2022/07/02 14:41:41;;;;;;;1.48;1.40;;;;;;;-141.48;100.00;69781.59;4980204;29;20039;-82
2022/07/02 14:45:10;;;;;;;4.55;1.90;;;;;;;-141.48;100.00;69781.59;4979066;29;20035;-83
2022/07/02 14:48:39;;;;;;;1.50;1.40;;;;;;;-141.48;100.00;69781.59;4979563;29;20034;-82
2022/07/02 14:52:08;;;;;;;1.00;1.00;;;;;;;-141.48;100.00;69781.59;4964215;29;20038;-83
2022/07/02 14:55:37;;;;;;;8.50;1.38;;;;;;;-141.48;100.00;69781.59;4979767;29;20042;-82
2022/07/02 14:59:11;;;;;;;3.60;1.10;;;;;;;-141.48;100.00;69781.59;4980258;29;20558;-84
2022/07/02 15:02:40;;;;;;;1.13;0.98;;;;;;;-141.48;100.00;69781.59;4978967;29;20490;-81
2022/07/02 15:06:10;;;;;;;0.90;0.90;;;;;;;-141.48;100.00;69781.59;4977940;29;20023;-83
2022/07/02 15:09:41;;;;;;;3.05;1.58;;;;;;;-141.48;100.00;69781.59;4980690;29;20030;-82
2022/07/02 15:13:10;;;;;;;1.38;1.33;;;;;;;-141.48;100.00;69781.59;4979995;29;20068;-82
2022/07/02 15:16:40;;;;;;;1.20;1.20;;;;;;;-141.48;100.00;69781.59;4977889;29;20035;-82
2022/07/02 15:20:09;;;;;;;1.60;1.60;;;;;;;-141.48;100.00;69781.59;4979631;29;20470;-81
2022/07/02 15:23:49;;;;;;;1.25;1.25;;;;;;;-141.48;100.00;69781.59;4979089;29;20033;-82
2022/07/02 15:27:19;;;;;;;1.10;1.10;;;;;;;-141.48;100.00;69781.59;4979572;29;20133;-81
2022/07/02 15:30:51;;;;;;;1.33;1.25;;;;;;;-141.48;100.00;69781.59;4979498;29;20030;-81
2022/07/02 15:34:21;;;;;;;1.60;1.20;;;;;;;-141.48;100.00;69781.59;4963024;29;20087;-85
2022/07/02 15:37:52;;;;;;;1.92;1.83;;;;;;;-141.48;100.00;69781.59;4979138;29;20050;-82
2022/07/02 15:41:25;;;;;;;2.30;1.95;;;;;;;-141.48;100.00;69781.59;4963238;29;20026;-82
2022/07/02 15:44:55;;;;;;;1.48;1.38;;;;;;;-141.48;100.00;69781.59;4962970;29;20035;-81
2022/07/02 15:48:25;;;;;;;3.85;2.25;;;;;;;-141.48;100.00;69781.59;4980995;29;20022;-79
2022/07/02 15:51:58;;;;;;;1.20;1.10;;;;;;;-141.48;100.00;69781.59;4979566;29;20103;-80
2022/07/02 15:55:55;;;;;;;1.48;1.40;;;;;;;-141.48;100.00;69781.59;4966486;29;20119;-80
2022/07/02 15:59:35;;;;;;;1.23;1.23;;;;;;;-141.48;100.00;69781.59;4984219;29;20038;-83
2022/07/02 16:03:04;;;;;;;1.95;1.10;;;;;;;-141.48;100.00;69781.59;4929139;30;20036;-79
2022/07/02 16:06:35;;;;;;;1.02;0.80;;;;;;;-141.48;100.00;69781.59;4941019;29;20026;-80
2022/07/02 16:10:06;;;;;;;1.20;1.20;;;;;;;-141.48;100.00;69781.59;4980000;29;20042;-83